Time;durP1;ratioP1;P1;durP2;ratioP2;P2;SDS_P1;SDS_P2;PMS_P1;PMS_P2;Temp;Humidity;BMP_temperature;BMP_pressure;BME280_temperature;BME280_humidity;BME280_pressure;Samples;Min_cycle;Max_cycle;Signal;HPM_P1;HPM_P2
2023/12/24 00:00:09;;;;;;;2.30;0.77;;;;;;;6.86;99.49;99353.53;4940106;28;20418;-68
2023/12/24 00:02:34;;;;;;;0.70;0.70;;;;;;;6.72;100.00;99349.88;4940165;28;20050;-69
2023/12/24 00:05:00;;;;;;;0.70;0.70;;;;;;;6.56;100.00;99352.72;4942829;29;20586;-69
2023/12/24 00:07:25;;;;;;;1.15;0.98;;;;;;;6.57;100.00;99338.19;4944983;29;20035;-69
2023/12/24 00:09:51;;;;;;;1.08;0.80;;;;;;;6.65;100.00;99342.53;4949273;28;20038;-69
2023/12/24 00:12:16;;;;;;;0.80;0.80;;;;;;;6.69;100.00;99337.22;4938598;29;20419;-69
2023/12/24 00:14:42;;;;;;;0.57;0.43;;;;;;;6.65;100.00;99334.50;4941942;29;20498;-69
2023/12/24 00:17:07;;;;;;;1.20;0.77;;;;;;;6.73;100.00;99343.41;4940783;29;20147;-69
2023/12/24 00:19:32;;;;;;;0.47;0.47;;;;;;;6.86;100.00;99326.00;4944225;29;20402;-69
2023/12/24 00:21:58;;;;;;;0.68;0.63;;;;;;;6.90;99.30;99330.25;4939755;28;21236;-69
2023/12/24 00:24:23;;;;;;;0.50;0.50;;;;;;;6.72;99.49;99337.25;4944589;29;20038;-69
2023/12/24 00:26:49;;;;;;;0.50;0.50;;;;;;;6.79;99.53;99337.38;4946333;28;20106;-69
2023/12/24 00:29:14;;;;;;;3.30;0.40;;;;;;;6.63;100.00;99330.63;4944277;29;20166;-69
2023/12/24 00:31:40;;;;;;;0.50;0.50;;;;;;;6.72;100.00;99321.22;4941898;28;20093;-69
2023/12/24 00:34:05;;;;;;;0.25;0.25;;;;;;;6.79;99.29;99321.34;4940799;29;20046;-69
2023/12/24 00:36:31;;;;;;;0.43;0.43;;;;;;;6.63;100.00;99298.53;4937456;29;20050;-69
2023/12/24 00:38:56;;;;;;;0.75;0.40;;;;;;;6.70;100.00;99299.41;4943227;29;20042;-69
2023/12/24 00:41:22;;;;;;;0.38;0.38;;;;;;;6.54;100.00;99288.13;4926086;29;20478;-68
2023/12/24 00:43:47;;;;;;;0.45;0.45;;;;;;;6.63;100.00;99291.31;4934922;29;20035;-70
2023/12/24 00:46:16;;;;;;;0.70;0.50;;;;;;;6.62;100.00;99305.78;4936654;29;20078;-69
2023/12/24 00:48:42;;;;;;;0.75;0.75;;;;;;;6.83;100.00;99306.06;4936851;29;20081;-69
2023/12/24 00:51:08;;;;;;;0.40;0.40;;;;;;;6.76;100.00;99311.34;4943728;29;20039;-69
2023/12/24 00:53:33;;;;;;;0.35;0.35;;;;;;;6.76;100.00;99303.31;4954274;28;20163;-69
2023/12/24 00:55:59;;;;;;;0.47;0.45;;;;;;;6.85;99.97;99292.34;4974919;28;20038;-68
2023/12/24 00:58:26;;;;;;;0.45;0.45;;;;;;;6.70;100.00;99296.72;4944604;29;20498;-68
2023/12/24 01:00:52;;;;;;;0.50;0.47;;;;;;;6.75;100.00;99291.09;4941682;29;20086;-69
2023/12/24 01:03:17;;;;;;;0.30;0.30;;;;;;;7.02;99.07;99295.25;4941719;28;20668;-69
2023/12/24 01:05:43;;;;;;;0.30;0.30;;;;;;;6.92;99.22;99295.09;4942986;29;20545;-69
2023/12/24 01:08:08;;;;;;;0.40;0.30;;;;;;;6.76;99.95;99300.63;4949257;28;20035;-69
2023/12/24 01:10:34;;;;;;;0.85;0.65;;;;;;;6.75;100.00;99296.44;4943712;29;20279;-69
2023/12/24 01:12:59;;;;;;;0.38;0.38;;;;;;;6.85;99.84;99293.09;4941838;28;20051;-69
2023/12/24 01:15:25;;;;;;;0.25;0.25;;;;;;;6.88;99.77;99286.25;4942859;29;20029;-69
2023/12/24 01:17:50;;;;;;;0.52;0.52;;;;;;;6.85;99.79;99284.31;4957776;28;20039;-69
2023/12/24 01:20:18;;;;;;;0.40;0.40;;;;;;;6.94;100.00;99290.94;4951312;28;20199;-70
2023/12/24 01:22:44;;;;;;;0.30;0.30;;;;;;;6.84;100.00;99296.16;4942456;28;20391;-69
2023/12/24 01:25:10;;;;;;;0.40;0.40;;;;;;;6.79;100.00;99280.44;4942328;29;20443;-69
2023/12/24 01:27:37;;;;;;;0.30;0.30;;;;;;;6.90;100.00;99282.09;4955230;28;20049;-69
2023/12/24 01:30:04;;;;;;;0.20;0.20;;;;;;;6.94;99.59;99287.50;4946592;29;20510;-69
2023/12/24 01:32:30;;;;;;;0.35;0.35;;;;;;;7.04;99.55;99281.50;4963010;28;20038;-69
2023/12/24 01:34:56;;;;;;;0.30;0.30;;;;;;;6.94;100.00;99274.13;4963315;28;20035;-69
2023/12/24 01:37:21;;;;;;;0.60;0.38;;;;;;;6.94;100.00;99274.13;4945463;29;20118;-69
2023/12/24 01:39:47;;;;;;;0.28;0.28;;;;;;;7.09;100.00;99278.50;4957962;28;20451;-69
2023/12/24 01:42:12;;;;;;;0.50;0.43;;;;;;;7.14;98.80;99272.84;4944006;28;20047;-69
2023/12/24 01:44:38;;;;;;;0.68;0.60;;;;;;;6.89;100.00;99266.41;4920634;29;20035;-69
2023/12/24 01:47:04;;;;;;;0.52;0.50;;;;;;;6.98;100.00;99267.69;4940377;29;20019;-69
2023/12/24 01:49:30;;;;;;;0.55;0.40;;;;;;;7.08;100.00;99274.28;4929321;29;20122;-69
2023/12/24 01:51:56;;;;;;;0.82;0.70;;;;;;;7.13;100.00;99272.06;4958765;28;20039;-69
2023/12/24 01:54:22;;;;;;;0.50;0.30;;;;;;;7.07;100.00;99260.13;4956874;28;20043;-69
2023/12/24 01:56:48;;;;;;;0.70;0.45;;;;;;;7.26;99.57;99261.84;4960306;28;20513;-69
2023/12/24 01:59:15;;;;;;;0.85;0.85;;;;;;;7.20;99.08;99260.66;4947899;28;20039;-69
2023/12/24 02:01:41;;;;;;;0.52;0.52;;;;;;;7.06;100.00;99250.56;4944590;28;20094;-69
2023/12/24 02:04:07;;;;;;;0.50;0.50;;;;;;;7.17;100.00;99251.44;4946153;28;20036;-69
2023/12/24 02:06:34;;;;;;;0.77;0.77;;;;;;;7.19;100.00;99249.19;4946785;29;20023;-69
2023/12/24 02:08:59;;;;;;;0.52;0.52;;;;;;;7.20;100.00;99240.00;4970408;28;20469;-69
2023/12/24 02:11:24;;;;;;;0.60;0.57;;;;;;;7.32;100.00;99238.97;4968547;28;20122;-69
2023/12/24 02:13:50;;;;;;;1.65;0.85;;;;;;;7.45;100.00;99226.09;4942364;29;20042;-69
2023/12/24 02:16:19;;;;;;;0.98;0.60;;;;;;;7.45;100.00;99218.84;4951055;28;20039;-69
2023/12/24 02:18:45;;;;;;;0.60;0.60;;;;;;;7.51;100.00;99229.97;4945955;28;20034;-69
2023/12/24 02:21:10;;;;;;;0.45;0.45;;;;;;;7.55;100.00;99223.50;4949076;28;20579;-69
2023/12/24 02:23:36;;;;;;;0.47;0.47;;;;;;;7.65;100.00;99222.81;4944247;28;20575;-69
2023/12/24 02:26:09;;;;;;;1.23;0.50;;;;;;;7.67;100.00;99225.13;4955493;28;20039;-69
2023/12/24 02:28:39;;;;;;;0.70;0.68;;;;;;;7.73;100.00;99211.03;4946252;29;20046;-69
2023/12/24 02:31:09;;;;;;;0.50;0.50;;;;;;;7.82;100.00;99210.72;4962267;28;20042;-69
2023/12/24 02:33:40;;;;;;;0.77;0.65;;;;;;;7.89;100.00;99213.44;4942024;28;20071;-69
2023/12/24 02:36:08;;;;;;;1.15;0.70;;;;;;;7.98;100.00;99205.84;4938395;29;20066;-69
2023/12/24 02:38:34;;;;;;;1.00;0.65;;;;;;;8.05;100.00;99193.25;4936685;29;20027;-69
2023/12/24 02:41:00;;;;;;;1.00;0.85;;;;;;;8.10;100.00;99192.16;4936178;29;20121;-69
2023/12/24 02:43:26;;;;;;;0.75;0.60;;;;;;;8.22;100.00;99189.16;4938390;29;20447;-69
2023/12/24 02:45:51;;;;;;;0.95;0.60;;;;;;;8.15;100.00;99191.78;4937771;28;20037;-69
2023/12/24 02:48:16;;;;;;;0.82;0.73;;;;;;;8.20;100.00;99189.53;4937070;28;20114;-69
2023/12/24 02:50:42;;;;;;;0.40;0.40;;;;;;;8.33;100.00;99191.91;4952455;28;20095;-69
2023/12/24 02:53:07;;;;;;;0.50;0.50;;;;;;;8.43;100.00;99194.66;4931039;28;20039;-69
2023/12/24 02:55:33;;;;;;;0.30;0.30;;;;;;;8.41;100.00;99188.91;4941251;28;20038;-69
2023/12/24 02:57:58;;;;;;;0.57;0.40;;;;;;;8.48;100.00;99182.81;4935621;29;20494;-69
2023/12/24 03:00:23;;;;;;;0.30;0.30;;;;;;;8.72;100.00;99190.19;4945397;28;20367;-69
2023/12/24 03:02:49;;;;;;;0.20;0.20;;;;;;;8.79;100.00;99182.91;4944029;28;20700;-69
2023/12/24 03:05:14;;;;;;;0.20;0.20;;;;;;;9.05;100.00;99187.22;4943336;28;21812;-69
2023/12/24 03:07:40;;;;;;;0.20;0.20;;;;;;;9.17;100.00;99191.47;4933119;29;20037;-68
2023/12/24 03:10:06;;;;;;;0.20;0.20;;;;;;;9.11;100.00;99183.00;4925979;29;20058;-69
2023/12/24 03:12:32;;;;;;;0.20;0.20;;;;;;;9.22;100.00;99181.09;4924063;29;20038;-69
2023/12/24 03:14:57;;;;;;;0.13;0.13;;;;;;;9.32;100.00;99184.94;4941348;28;20626;-69
2023/12/24 03:17:23;;;;;;;0.20;0.20;;;;;;;9.49;100.00;99179.59;4940727;29;20037;-68
2023/12/24 03:19:48;;;;;;;0.20;0.20;;;;;;;9.49;100.00;99184.19;4968076;28;20027;-68
2023/12/24 03:22:14;;;;;;;0.20;0.20;;;;;;;9.52;100.00;99165.41;4943794;29;20027;-68
2023/12/24 03:24:39;;;;;;;0.30;0.30;;;;;;;9.32;100.00;99172.31;4943600;29;20066;-68
2023/12/24 03:27:04;;;;;;;0.20;0.20;;;;;;;9.50;100.00;99183.06;4940526;29;20116;-68
2023/12/24 03:29:30;;;;;;;0.25;0.25;;;;;;;9.59;100.00;99175.38;4956836;28;20726;-69
2023/12/24 03:31:55;;;;;;;0.20;0.20;;;;;;;9.48;100.00;99167.34;4958106;28;20510;-69
2023/12/24 03:34:21;;;;;;;0.10;0.10;;;;;;;9.56;100.00;99166.16;4942745;28;20521;-68
2023/12/24 03:36:46;;;;;;;0.10;0.10;;;;;;;9.77;100.00;99171.53;4948737;28;20498;-69
2023/12/24 03:39:12;;;;;;;0.20;0.20;;;;;;;9.90;100.00;99171.91;4956244;28;20039;-69
2023/12/24 03:41:37;;;;;;;0.20;0.20;;;;;;;9.75;100.00;99160.41;4937664;29;20068;-68
2023/12/24 03:44:03;;;;;;;0.20;0.20;;;;;;;9.96;100.00;99156.91;4941679;29;20503;-69
2023/12/24 03:46:29;;;;;;;0.17;0.17;;;;;;;9.91;100.00;99162.69;4945219;28;20107;-69
2023/12/24 03:48:54;;;;;;;0.20;0.20;;;;;;;10.00;100.00;99155.75;4960338;28;20054;-69
2023/12/24 03:51:20;;;;;;;0.45;0.20;;;;;;;10.04;100.00;99158.44;4942962;29;20249;-69
2023/12/24 03:53:46;;;;;;;0.20;0.20;;;;;;;10.00;100.00;99155.00;4968021;28;20027;-69
2023/12/24 03:56:11;;;;;;;0.20;0.20;;;;;;;9.97;100.00;99159.22;4942803;29;20052;-69
2023/12/24 03:58:38;;;;;;;0.32;0.32;;;;;;;9.88;100.00;99141.94;4957867;28;20043;-69
2023/12/24 04:01:10;;;;;;;0.30;0.30;;;;;;;10.05;100.00;99141.13;4944288;28;20035;-69
2023/12/24 04:03:36;;;;;;;0.20;0.20;;;;;;;10.09;100.00;99149.19;4938735;28;20087;-69
2023/12/24 04:06:09;;;;;;;0.17;0.17;;;;;;;10.14;100.00;99146.94;4966187;28;20046;-68
2023/12/24 04:08:35;;;;;;;0.10;0.10;;;;;;;10.02;100.00;99141.94;4948895;28;20035;-68
2023/12/24 04:11:01;;;;;;;0.13;0.13;;;;;;;10.03;100.00;99138.06;4966037;28;20082;-69
2023/12/24 04:13:27;;;;;;;0.10;0.10;;;;;;;10.13;100.00;99140.00;4944258;28;20081;-69
2023/12/24 04:15:52;;;;;;;0.20;0.20;;;;;;;10.08;100.00;99143.06;4945444;29;20023;-68
2023/12/24 04:18:18;;;;;;;0.20;0.20;;;;;;;9.88;100.00;99148.09;4943288;29;20035;-69
2023/12/24 04:20:43;;;;;;;0.10;0.10;;;;;;;9.91;100.00;99152.69;4946881;29;20039;-68
2023/12/24 04:23:09;;;;;;;0.30;0.30;;;;;;;9.88;100.00;99152.69;4937828;28;20102;-68
2023/12/24 04:25:34;;;;;;;0.25;0.25;;;;;;;10.04;100.00;99145.00;4938834;29;20047;-69
2023/12/24 04:28:00;;;;;;;0.20;0.20;;;;;;;10.15;100.00;99151.13;4942341;28;20059;-68
2023/12/24 04:30:27;;;;;;;0.20;0.20;;;;;;;10.28;100.00;99141.47;4955278;28;20039;-68
2023/12/24 04:32:56;;;;;;;0.22;0.22;;;;;;;10.03;100.00;99149.59;4943346;29;20171;-69
2023/12/24 04:35:21;;;;;;;0.30;0.30;;;;;;;10.25;100.00;99139.59;4942976;29;20126;-68
2023/12/24 04:37:47;;;;;;;0.20;0.20;;;;;;;10.29;100.00;99137.66;4944479;28;20039;-69
2023/12/24 04:40:12;;;;;;;0.10;0.10;;;;;;;10.12;100.00;99146.53;4948321;29;20038;-68
2023/12/24 04:42:38;;;;;;;0.20;0.20;;;;;;;10.17;100.00;99140.75;4961595;28;20045;-69
2023/12/24 04:45:03;;;;;;;0.30;0.30;;;;;;;10.27;100.00;99133.81;4946311;28;20540;-69
2023/12/24 04:47:29;;;;;;;0.20;0.20;;;;;;;10.42;100.00;99127.22;4969690;28;20085;-69
2023/12/24 04:49:55;;;;;;;0.20;0.20;;;;;;;10.33;100.00;99135.72;4945059;29;20043;-69
2023/12/24 04:52:20;;;;;;;0.10;0.10;;;;;;;10.26;100.00;99127.66;4944983;29;20225;-69
2023/12/24 04:54:46;;;;;;;0.10;0.10;;;;;;;10.26;100.00;99132.28;4950921;28;20031;-69
2023/12/24 04:57:11;;;;;;;0.20;0.20;;;;;;;10.21;100.00;99133.44;4956977;28;20047;-69
2023/12/24 04:59:36;;;;;;;0.40;0.30;;;;;;;10.40;100.00;99134.91;4954432;28;20058;-69
2023/12/24 05:02:02;;;;;;;0.17;0.17;;;;;;;10.39;100.00;99136.84;4951455;28;20043;-69
2023/12/24 05:04:32;;;;;;;0.20;0.20;;;;;;;10.44;100.00;99133.75;4942024;28;20502;-68
2023/12/24 05:06:58;;;;;;;0.43;0.30;;;;;;;10.52;100.00;99121.78;4943937;29;20093;-68
2023/12/24 05:09:24;;;;;;;0.20;0.20;;;;;;;10.37;100.00;99139.16;4958560;28;20070;-69
2023/12/24 05:11:50;;;;;;;0.47;0.20;;;;;;;10.41;100.00;99139.91;4974346;28;20039;-69
2023/12/24 05:14:16;;;;;;;0.30;0.30;;;;;;;10.52;100.00;99132.56;4949025;29;20036;-69
2023/12/24 05:16:41;;;;;;;0.10;0.10;;;;;;;10.66;100.00;99129.81;4946388;28;20043;-68
2023/12/24 05:19:06;;;;;;;0.15;0.15;;;;;;;10.34;100.00;99123.00;4961922;28;20049;-68
2023/12/24 05:21:32;;;;;;;0.20;0.20;;;;;;;10.61;100.00;99138.28;4938172;28;20475;-69
2023/12/24 05:23:57;;;;;;;0.20;0.20;;;;;;;10.39;100.00;99123.41;4943765;29;20074;-69
2023/12/24 05:26:24;;;;;;;0.10;0.10;;;;;;;10.47;100.00;99116.81;4944132;29;20027;-67
2023/12/24 05:28:51;;;;;;;0.20;0.20;;;;;;;10.63;100.00;99119.81;4947077;28;20067;-68
2023/12/24 05:31:17;;;;;;;0.20;0.20;;;;;;;10.59;100.00;99120.97;4931573;29;20043;-68
2023/12/24 05:33:42;;;;;;;0.15;0.15;;;;;;;10.66;100.00;99123.66;4951573;28;20094;-68
2023/12/24 05:36:12;;;;;;;0.25;0.22;;;;;;;10.58;100.00;99125.63;4962571;28;20062;-68
2023/12/24 05:38:38;;;;;;;0.15;0.15;;;;;;;10.73;100.00;99116.28;4948575;29;20486;-68
2023/12/24 05:41:03;;;;;;;0.15;0.15;;;;;;;10.73;100.00;99123.59;4922934;29;20030;-68
2023/12/24 05:43:28;;;;;;;0.20;0.20;;;;;;;10.64;100.00;99121.34;4943567;29;20035;-68
2023/12/24 05:45:54;;;;;;;0.20;0.20;;;;;;;10.66;100.00;99112.88;4940829;28;20027;-68
2023/12/24 05:48:19;;;;;;;0.30;0.30;;;;;;;10.48;100.00;99102.19;4964953;28;20038;-67
2023/12/24 05:50:45;;;;;;;0.20;0.20;;;;;;;10.34;100.00;99102.25;4943817;29;20122;-68
2023/12/24 05:53:10;;;;;;;0.15;0.15;;;;;;;10.38;100.00;99086.09;4943706;28;20125;-68
2023/12/24 05:55:35;;;;;;;0.20;0.20;;;;;;;10.50;100.00;99104.50;4945161;29;20539;-68
2023/12/24 05:58:01;;;;;;;0.17;0.17;;;;;;;10.62;100.00;99096.75;4949642;28;20329;-68
2023/12/24 06:00:27;;;;;;;0.28;0.28;;;;;;;10.37;100.00;99104.19;4948016;29;20509;-68
2023/12/24 06:02:52;;;;;;;0.15;0.15;;;;;;;10.58;100.00;99087.94;4944040;29;20390;-68
2023/12/24 06:05:18;;;;;;;0.10;0.10;;;;;;;10.70;100.00;99098.22;4951837;28;20490;-68
2023/12/24 06:07:44;;;;;;;0.80;0.30;;;;;;;10.94;100.00;99082.31;4940698;29;20059;-68
2023/12/24 06:10:09;;;;;;;0.20;0.20;;;;;;;10.67;100.00;99090.94;4943355;29;20035;-68
2023/12/24 06:12:36;;;;;;;0.10;0.10;;;;;;;10.89;100.00;99096.97;4947447;28;20087;-68
2023/12/24 06:15:01;;;;;;;0.20;0.20;;;;;;;10.95;100.00;99092.69;4950334;28;20134;-68
2023/12/24 06:17:27;;;;;;;0.08;0.08;;;;;;;10.62;100.00;99091.38;4946892;28;20126;-68
2023/12/24 06:19:52;;;;;;;0.15;0.15;;;;;;;10.75;100.00;99095.13;4945617;29;20514;-68
2023/12/24 06:22:18;;;;;;;0.20;0.20;;;;;;;10.75;100.00;99081.66;4949368;28;20490;-68
2023/12/24 06:24:43;;;;;;;0.20;0.20;;;;;;;10.49;100.00;99086.81;4948309;28;20073;-68
2023/12/24 06:27:10;;;;;;;0.20;0.20;;;;;;;10.73;100.00;99077.84;4934883;29;20093;-68
2023/12/24 06:29:38;;;;;;;0.38;0.38;;;;;;;10.81;100.00;99080.09;4938962;28;20155;-68
2023/12/24 06:32:04;;;;;;;0.20;0.20;;;;;;;10.86;100.00;99076.19;4937876;28;20085;-68
2023/12/24 06:34:30;;;;;;;0.30;0.30;;;;;;;10.79;100.00;99081.63;4939942;28;20125;-68
2023/12/24 06:36:55;;;;;;;0.40;0.40;;;;;;;10.73;100.00;99081.28;4941308;29;20035;-68
2023/12/24 06:39:21;;;;;;;0.10;0.10;;;;;;;10.78;100.00;99080.88;4945035;28;20578;-68
2023/12/24 06:41:47;;;;;;;0.20;0.20;;;;;;;10.81;100.00;99071.25;4940021;28;20161;-68
2023/12/24 06:44:13;;;;;;;0.30;0.30;;;;;;;10.79;100.00;99077.03;4941714;29;20732;-68
2023/12/24 06:46:38;;;;;;;0.40;0.40;;;;;;;10.69;100.00;99069.00;4939651;28;20561;-68
2023/12/24 06:49:04;;;;;;;0.30;0.30;;;;;;;10.85;100.00;99072.75;4938742;29;20046;-68
2023/12/24 06:51:29;;;;;;;0.30;0.30;;;;;;;10.79;100.00;99074.34;4938543;28;20039;-68
2023/12/24 06:53:54;;;;;;;0.25;0.25;;;;;;;10.69;100.00;99064.41;4941874;28;20098;-67
2023/12/24 06:56:20;;;;;;;0.45;0.40;;;;;;;10.75;100.00;99059.34;4936807;28;20039;-68
2023/12/24 06:58:45;;;;;;;0.68;0.43;;;;;;;11.02;100.00;99056.84;4945488;28;20519;-68
2023/12/24 07:01:11;;;;;;;0.20;0.20;;;;;;;11.05;100.00;99064.16;4943341;28;20043;-68
2023/12/24 07:03:36;;;;;;;0.65;0.40;;;;;;;10.97;100.00;99068.06;4970509;28;20116;-68
2023/12/24 07:06:02;;;;;;;0.35;0.30;;;;;;;11.07;100.00;99061.84;4944936;28;20158;-68
2023/12/24 07:08:29;;;;;;;0.95;0.40;;;;;;;11.04;100.00;99062.59;4943977;28;20407;-68
2023/12/24 07:10:55;;;;;;;0.30;0.30;;;;;;;11.06;100.00;99062.97;4943807;29;20450;-68
2023/12/24 07:13:20;;;;;;;0.30;0.30;;;;;;;11.21;100.00;99061.69;4942101;28;20035;-68
2023/12/24 07:15:46;;;;;;;0.25;0.25;;;;;;;11.21;100.00;99057.09;4946593;28;20166;-68
2023/12/24 07:18:11;;;;;;;0.20;0.20;;;;;;;11.03;100.00;99058.41;4943891;28;20054;-68
2023/12/24 07:20:37;;;;;;;0.30;0.30;;;;;;;11.08;100.00;99053.34;4945705;28;21331;-68
2023/12/24 07:23:03;;;;;;;0.20;0.20;;;;;;;10.99;100.00;99050.34;4940101;28;20494;-68
2023/12/24 07:25:28;;;;;;;0.65;0.45;;;;;;;10.89;100.00;99051.19;4938096;29;20487;-68
2023/12/24 07:27:53;;;;;;;0.52;0.30;;;;;;;10.75;100.00;99052.06;4939224;28;20126;-68
2023/12/24 07:30:19;;;;;;;0.10;0.10;;;;;;;10.82;100.00;99046.59;4940042;28;20074;-70
2023/12/24 07:32:45;;;;;;;0.40;0.40;;;;;;;10.93;100.00;99045.78;4915930;29;20039;-68
2023/12/24 07:35:11;;;;;;;0.43;0.43;;;;;;;11.08;100.00;99052.56;4928719;29;20109;-68
2023/12/24 07:37:38;;;;;;;0.30;0.30;;;;;;;11.08;100.00;99047.97;4938730;29;20073;-68
2023/12/24 07:40:04;;;;;;;0.63;0.30;;;;;;;11.04;100.00;99039.13;4922124;29;20665;-68
2023/12/24 07:42:29;;;;;;;0.30;0.30;;;;;;;11.18;100.00;99041.72;4934786;29;20043;-68
2023/12/24 07:44:55;;;;;;;0.40;0.40;;;;;;;11.05;100.00;99029.13;4937475;28;20502;-68
2023/12/24 07:47:20;;;;;;;0.30;0.30;;;;;;;11.12;100.00;99035.22;4938833;28;20133;-68
2023/12/24 07:49:46;;;;;;;0.30;0.30;;;;;;;10.86;100.00;99046.56;4945955;28;20063;-68
2023/12/24 07:52:11;;;;;;;0.30;0.30;;;;;;;10.99;100.00;99034.19;4942954;29;20090;-68
2023/12/24 07:54:37;;;;;;;0.50;0.40;;;;;;;10.83;100.00;99032.00;4938220;29;20413;-68
2023/12/24 07:57:03;;;;;;;0.40;0.40;;;;;;;11.08;100.00;99039.09;4942312;29;20042;-68
2023/12/24 07:59:28;;;;;;;0.43;0.43;;;;;;;11.21;100.00;99037.44;4945491;28;20068;-68
2023/12/24 08:01:54;;;;;;;0.40;0.40;;;;;;;11.28;100.00;99032.78;4926552;29;20114;-68
2023/12/24 08:04:19;;;;;;;0.32;0.32;;;;;;;11.28;100.00;99034.72;4945709;28;20435;-68
2023/12/24 08:06:45;;;;;;;0.35;0.35;;;;;;;11.11;100.00;99019.47;4935796;29;20019;-69
2023/12/24 08:09:10;;;;;;;0.50;0.38;;;;;;;11.23;100.00;99014.34;4943602;28;20038;-68
2023/12/24 08:11:37;;;;;;;0.38;0.38;;;;;;;11.20;100.00;99022.47;4939457;29;20027;-68
2023/12/24 08:14:02;;;;;;;1.15;0.40;;;;;;;11.34;100.00;99022.34;4923680;29;20035;-68
2023/12/24 08:16:31;;;;;;;0.32;0.32;;;;;;;11.32;100.00;99011.97;4961758;28;20070;-68
2023/12/24 08:18:58;;;;;;;0.30;0.30;;;;;;;11.09;100.00;99019.09;4923538;29;20042;-68
2023/12/24 08:21:23;;;;;;;0.38;0.38;;;;;;;11.02;100.00;99013.75;4944228;29;20039;-68
2023/12/24 08:23:49;;;;;;;0.47;0.47;;;;;;;11.22;100.00;99020.91;4947235;28;20050;-68
2023/12/24 08:26:14;;;;;;;0.63;0.52;;;;;;;11.27;100.00;99014.31;4960017;28;20039;-68
2023/12/24 08:28:39;;;;;;;0.35;0.35;;;;;;;11.27;100.00;99014.31;4944125;29;20035;-68
2023/12/24 08:31:05;;;;;;;0.17;0.17;;;;;;;11.34;100.00;99019.66;4946080;29;20023;-68
2023/12/24 08:33:30;;;;;;;0.57;0.50;;;;;;;11.31;100.00;99017.72;4944259;28;20117;-68
2023/12/24 08:35:56;;;;;;;0.45;0.40;;;;;;;11.34;100.00;99012.31;4945954;29;20073;-68
2023/12/24 08:38:21;;;;;;;0.28;0.28;;;;;;;11.37;100.00;99016.13;4944535;28;20031;-68
2023/12/24 08:40:47;;;;;;;0.35;0.30;;;;;;;11.16;100.00;99022.50;4940545;28;20344;-68
2023/12/24 08:43:12;;;;;;;0.73;0.50;;;;;;;11.18;100.00;99014.78;4935480;28;20130;-68
2023/12/24 08:45:38;;;;;;;0.50;0.50;;;;;;;11.24;100.00;99007.03;4938925;29;20076;-68
2023/12/24 08:48:03;;;;;;;0.30;0.30;;;;;;;11.33;100.00;99018.88;4943977;28;20533;-68
2023/12/24 08:50:29;;;;;;;0.45;0.30;;;;;;;11.33;100.00;99005.41;4945784;28;20050;-68
2023/12/24 08:52:54;;;;;;;0.43;0.43;;;;;;;11.50;100.00;99009.84;4937905;28;20511;-68
2023/12/24 08:55:20;;;;;;;0.40;0.40;;;;;;;11.32;100.00;99019.28;4932069;28;20550;-68
2023/12/24 08:57:45;;;;;;;0.40;0.40;;;;;;;11.42;100.00;99004.94;4936539;28;20043;-68
2023/12/24 09:00:11;;;;;;;1.23;0.30;;;;;;;11.51;100.00;99006.00;4943205;28;20498;-68
2023/12/24 09:02:38;;;;;;;0.30;0.30;;;;;;;11.44;100.00;98999.91;4971184;28;20163;-68
2023/12/24 09:05:05;;;;;;;0.30;0.30;;;;;;;11.27;100.00;99007.00;4944040;29;20498;-68
2023/12/24 09:07:30;;;;;;;0.25;0.25;;;;;;;11.28;100.00;99000.44;4947510;28;20114;-68
2023/12/24 09:09:56;;;;;;;0.25;0.25;;;;;;;11.50;100.00;98998.28;4944777;29;20082;-68
2023/12/24 09:12:21;;;;;;;0.20;0.20;;;;;;;11.74;100.00;99008.84;4943850;28;20043;-68
2023/12/24 09:14:47;;;;;;;0.73;0.30;;;;;;;11.51;100.00;99005.22;4947548;29;20035;-68
2023/12/24 09:17:12;;;;;;;0.40;0.40;;;;;;;11.49;100.00;99012.94;4948146;28;20054;-68
2023/12/24 09:19:38;;;;;;;0.57;0.57;;;;;;;11.53;100.00;99013.66;4946308;29;20379;-68
2023/12/24 09:22:03;;;;;;;0.38;0.30;;;;;;;11.59;100.00;99014.75;4928812;29;20070;-70
2023/12/24 09:24:29;;;;;;;0.70;0.68;;;;;;;11.44;100.00;99008.75;4948042;29;20023;-68
2023/12/24 09:26:54;;;;;;;0.52;0.52;;;;;;;11.56;100.00;99005.53;4975947;28;20102;-68
2023/12/24 09:29:21;;;;;;;0.90;0.57;;;;;;;11.47;100.00;99012.56;4948915;28;20049;-68
2023/12/24 09:31:50;;;;;;;0.57;0.50;;;;;;;11.31;100.00;99012.34;4947177;29;20056;-68
2023/12/24 09:34:15;;;;;;;1.85;0.65;;;;;;;11.60;100.00;99010.88;4948942;29;20023;-68
2023/12/24 09:36:40;;;;;;;0.98;0.60;;;;;;;11.73;100.00;99015.38;4947112;28;20047;-68
2023/12/24 09:39:06;;;;;;;1.50;0.80;;;;;;;11.48;100.00;99006.78;4934188;29;20058;-68
2023/12/24 09:41:31;;;;;;;0.30;0.30;;;;;;;11.75;100.00;99014.97;4944633;28;20047;-68
2023/12/24 09:43:57;;;;;;;0.30;0.30;;;;;;;11.84;100.00;99011.81;4946932;28;20041;-68
2023/12/24 09:46:23;;;;;;;0.50;0.50;;;;;;;11.72;100.00;99013.88;4946796;29;20043;-68
2023/12/24 09:48:48;;;;;;;0.30;0.30;;;;;;;11.88;100.00;99009.84;4963262;28;20483;-68
2023/12/24 09:51:14;;;;;;;0.70;0.50;;;;;;;11.71;100.00;99006.94;4947838;28;20038;-68
2023/12/24 09:53:44;;;;;;;0.30;0.30;;;;;;;11.66;100.00;98991.22;4973601;28;20031;-68
2023/12/24 09:56:10;;;;;;;2.00;0.75;;;;;;;11.70;100.00;98997.34;4941478;28;20039;-69
2023/12/24 09:58:35;;;;;;;0.40;0.40;;;;;;;11.61;100.00;99002.38;4940523;28;20035;-68
2023/12/24 10:01:01;;;;;;;0.47;0.20;;;;;;;11.75;100.00;98993.41;4946920;28;20050;-68
2023/12/24 10:03:27;;;;;;;0.28;0.28;;;;;;;11.84;100.00;99001.81;4920685;28;20051;-68
2023/12/24 10:06:08;;;;;;;0.35;0.35;;;;;;;11.70;100.00;98988.47;4918240;29;20118;-68
2023/12/24 10:08:37;;;;;;;0.38;0.38;;;;;;;11.85;100.00;99016.81;4919754;29;20035;-68
2023/12/24 10:11:16;;;;;;;0.82;0.45;;;;;;;11.96;100.00;99003.97;4918547;29;20050;-68
2023/12/24 10:13:43;;;;;;;0.45;0.45;;;;;;;11.73;100.00;98998.44;4922378;29;20082;-68
2023/12/24 10:16:09;;;;;;;0.68;0.40;;;;;;;11.79;100.00;98988.75;4909169;29;20491;-68
2023/12/24 10:18:36;;;;;;;0.68;0.38;;;;;;;11.88;100.00;98986.34;4920003;29;20047;-68
2023/12/24 10:21:08;;;;;;;0.60;0.32;;;;;;;12.01;100.00;98992.72;4919729;29;20054;-68
2023/12/24 10:23:33;;;;;;;0.50;0.38;;;;;;;12.10;100.00;98981.44;4918735;29;20047;-68
2023/12/24 10:26:03;;;;;;;0.30;0.30;;;;;;;11.96;100.00;98987.78;4918000;29;20047;-67
2023/12/24 10:28:30;;;;;;;0.60;0.55;;;;;;;12.08;100.00;98979.13;4915806;29;20027;-67
2023/12/24 10:31:05;;;;;;;0.50;0.47;;;;;;;11.73;100.00;98977.63;4921368;29;20043;-68
2023/12/24 10:33:31;;;;;;;0.45;0.45;;;;;;;12.08;100.00;98967.59;4919690;29;20047;-68
2023/12/24 10:35:57;;;;;;;0.40;0.40;;;;;;;12.11;100.00;98961.38;4920566;29;20447;-68
2023/12/24 10:38:26;;;;;;;0.40;0.40;;;;;;;12.24;100.00;98970.44;4901984;29;20758;-69
2023/12/24 10:40:52;;;;;;;0.40;0.40;;;;;;;11.93;100.00;98956.22;4929589;29;20040;-69
2023/12/24 10:43:18;;;;;;;0.52;0.52;;;;;;;12.15;100.00;98954.75;4925082;29;20308;-69
2023/12/24 10:45:43;;;;;;;0.40;0.40;;;;;;;11.95;100.00;98953.88;4928486;29;20031;-69
2023/12/24 10:48:09;;;;;;;0.47;0.47;;;;;;;11.93;100.00;98956.22;4931780;29;20043;-69
2023/12/24 10:50:34;;;;;;;0.40;0.40;;;;;;;12.12;100.00;98941.28;4925457;29;20032;-69
2023/12/24 10:52:59;;;;;;;0.70;0.50;;;;;;;12.38;100.00;98940.53;4929732;29;20039;-70
2023/12/24 10:55:26;;;;;;;0.40;0.40;;;;;;;12.32;100.00;98932.16;4927966;29;20048;-69
2023/12/24 10:58:07;;;;;;;0.20;0.20;;;;;;;12.16;100.00;98928.53;4928749;29;20039;-70
2023/12/24 11:00:32;;;;;;;0.50;0.40;;;;;;;12.06;100.00;98932.91;4927482;29;20039;-69
2023/12/24 11:02:59;;;;;;;1.65;0.50;;;;;;;12.22;100.00;98922.28;4931719;29;20046;-69
2023/12/24 11:05:39;;;;;;;0.38;0.22;;;;;;;12.29;100.00;98924.84;4929110;29;20044;-69
2023/12/24 11:08:05;;;;;;;0.70;0.70;;;;;;;12.23;100.00;98939.97;4932169;29;20451;-69
2023/12/24 11:10:42;;;;;;;1.50;0.70;;;;;;;12.37;100.00;98933.59;4927668;29;20036;-69
2023/12/24 11:13:34;;;;;;;0.40;0.40;;;;;;;12.43;100.00;98929.28;4930397;29;20042;-69
2023/12/24 11:16:00;;;;;;;;;;;;;;;12.35;100.00;98927.88;4928409;29;20044;-69
2023/12/24 11:18:42;;;;;;;0.80;0.47;;;;;;;12.31;100.00;98917.13;4928235;29;19977;-69
2023/12/24 11:21:12;;;;;;;0.38;0.38;;;;;;;12.25;100.00;98907.94;4929214;29;20133;-69
2023/12/24 11:23:40;;;;;;;0.40;0.40;;;;;;;12.43;100.00;98903.03;4929749;29;20042;-69